Time;durP1;ratioP1;P1;durP2;ratioP2;P2;SDS_P1;SDS_P2;PMS_P1;PMS_P2;Temp;Humidity;BMP_temperature;BMP_pressure;BME280_temperature;BME280_humidity;BME280_pressure;Samples;Min_cycle;Max_cycle;Signal;HPM_P1;HPM_P2
2022/06/05 00:02:27;;;;;;;15.57;7.68;;;;;;;;;;5090366;28;20031;-64
2022/06/05 00:05:20;;;;;;;9.15;7.15;;;;;;;;;;5096953;28;20405;-66
2022/06/05 00:08:25;;;;;;;9.77;6.63;;;;;;;;;;5084006;28;20020;-70
2022/06/05 00:11:12;;;;;;;8.80;6.95;;;;;;;;;;5094352;28;20410;-70
2022/06/05 00:13:57;;;;;;;7.93;6.57;;;;;;;;;;5087324;28;20020;-69
2022/06/05 00:16:43;;;;;;;8.65;7.18;;;;;;;;;;5107279;28;20015;-70
2022/06/05 00:19:29;;;;;;;8.75;7.70;;;;;;;;;;5102915;28;20378;-71
2022/06/05 00:22:15;;;;;;;7.85;6.55;;;;;;;;;;5104890;28;20031;-69
2022/06/05 00:25:01;;;;;;;8.30;6.50;;;;;;;;;;5098578;28;20020;-64
2022/06/05 00:27:48;;;;;;;10.43;7.20;;;;;;;;;;5109079;28;20332;-64
2022/06/05 00:30:56;;;;;;;9.02;7.20;;;;;;;;;;5096460;28;20166;-64
2022/06/05 00:33:41;;;;;;;10.63;6.82;;;;;;;;;;5103636;28;20032;-63
2022/06/05 00:36:33;;;;;;;8.63;7.20;;;;;;;;;;5097340;28;20295;-64
2022/06/05 00:39:27;;;;;;;9.40;6.32;;;;;;;;;;5094526;28;20031;-63
2022/06/05 00:42:16;;;;;;;8.15;7.00;;;;;;;;;;5109639;28;20081;-63
2022/06/05 00:45:06;;;;;;;9.35;6.57;;;;;;;;;;5097708;28;20021;-71
2022/06/05 00:47:52;;;;;;;8.43;7.35;;;;;;;;;;5107836;28;20044;-72
2022/06/05 00:50:39;;;;;;;11.98;6.75;;;;;;;;;;5103344;28;20024;-71
2022/06/05 00:53:25;;;;;;;7.78;6.07;;;;;;;;;;5101556;28;20425;-70
2022/06/05 00:56:11;;;;;;;8.25;7.28;;;;;;;;;;5091595;28;20030;-73
2022/06/05 00:58:57;;;;;;;7.70;6.60;;;;;;;;;;5113761;28;20071;-71
2022/06/05 01:01:43;;;;;;;13.00;7.75;;;;;;;;;;5092413;28;20418;-62
2022/06/05 01:04:29;;;;;;;10.85;7.20;;;;;;;;;;5102111;28;20482;-63
2022/06/05 01:07:14;;;;;;;9.25;6.72;;;;;;;;;;5093766;28;20094;-62
2022/06/05 01:10:00;;;;;;;10.00;6.95;;;;;;;;;;5100123;28;20076;-63
2022/06/05 01:13:02;;;;;;;9.32;6.60;;;;;;;;;;5092195;28;20028;-62
2022/06/05 01:15:50;;;;;;;8.57;7.10;;;;;;;;;;5116479;28;20087;-62
2022/06/05 01:18:42;;;;;;;8.13;6.63;;;;;;;;;;5104364;28;20493;-73
2022/06/05 01:21:40;;;;;;;9.80;6.93;;;;;;;;;;5103971;28;20031;-70
2022/06/05 01:24:40;;;;;;;8.77;7.43;;;;;;;;;;5095240;28;20120;-71
2022/06/05 01:27:29;;;;;;;8.10;6.75;;;;;;;;;;5109469;27;20031;-71
2022/06/05 01:30:17;;;;;;;6.88;6.00;;;;;;;;;;5100726;28;20016;-72
2022/06/05 01:33:07;;;;;;;7.65;6.00;;;;;;;;;;5101451;28;20032;-71
2022/06/05 01:36:03;;;;;;;8.20;7.03;;;;;;;;;;5100788;27;20027;-70
2022/06/05 01:38:53;;;;;;;9.88;7.13;;;;;;;;;;5090178;28;20080;-71
2022/06/05 01:41:41;;;;;;;8.00;6.65;;;;;;;;;;5089345;28;20508;-70
2022/06/05 01:44:37;;;;;;;7.00;6.30;;;;;;;;;;5107782;28;20019;-70
2022/06/05 01:47:32;;;;;;;10.18;6.95;;;;;;;;;;5109096;28;20039;-72
2022/06/05 01:50:24;;;;;;;8.23;6.00;;;;;;;;;;5100570;27;20071;-70
2022/06/05 01:53:18;;;;;;;7.50;6.25;;;;;;;;;;5106366;28;20028;-71
2022/06/05 01:56:09;;;;;;;8.95;7.43;;;;;;;;;;5100333;28;20382;-72
2022/06/05 01:58:59;;;;;;;7.85;6.80;;;;;;;;;;5086634;28;20024;-71
2022/06/05 02:01:47;;;;;;;8.57;6.50;;;;;;;;;;5103065;28;20437;-71
2022/06/05 02:04:35;;;;;;;8.27;6.50;;;;;;;;;;5101245;28;20024;-71
2022/06/05 02:07:36;;;;;;;8.77;6.97;;;;;;;;;;5109877;28;20489;-70
2022/06/05 02:10:26;;;;;;;8.20;6.45;;;;;;;;;;5102464;28;20103;-70
2022/06/05 02:13:11;;;;;;;8.05;6.60;;;;;;;;;;5106410;28;20362;-61
2022/06/05 02:15:57;;;;;;;8.95;7.05;;;;;;;;;;5110420;27;20024;-65
2022/06/05 02:18:43;;;;;;;9.15;7.40;;;;;;;;;;5102896;28;20024;-66
2022/06/05 02:21:28;;;;;;;10.55;7.82;;;;;;;;;;5106598;28;20055;-66
2022/06/05 02:24:14;;;;;;;8.07;6.75;;;;;;;;;;5108010;28;20475;-64
2022/06/05 02:27:01;;;;;;;10.88;7.35;;;;;;;;;;5112872;28;20032;-64
2022/06/05 02:29:47;;;;;;;8.55;6.45;;;;;;;;;;5106658;28;20072;-66
2022/06/05 02:32:32;;;;;;;8.40;6.72;;;;;;;;;;5099310;28;20099;-63
2022/06/05 02:35:31;;;;;;;8.80;6.93;;;;;;;;;;5100789;28;20016;-62
2022/06/05 02:38:22;;;;;;;9.77;6.82;;;;;;;;;;5096696;28;20043;-64
2022/06/05 02:41:26;;;;;;;10.30;7.70;;;;;;;;;;5094583;28;20023;-63
2022/06/05 02:44:31;;;;;;;10.25;7.65;;;;;;;;;;5102528;28;20020;-64
2022/06/05 02:47:16;;;;;;;10.63;7.30;;;;;;;;;;5104932;27;20413;-64
2022/06/05 02:50:24;;;;;;;8.38;7.18;;;;;;;;;;5098930;28;20036;-61
2022/06/05 02:53:11;;;;;;;8.65;6.57;;;;;;;;;;5094317;28;20383;-63
2022/06/05 02:55:56;;;;;;;8.88;6.35;;;;;;;;;;5098504;28;20057;-64
2022/06/05 02:58:42;;;;;;;9.07;7.22;;;;;;;;;;5094385;28;20498;-62
2022/06/05 03:04:32;;;;;;;10.18;6.53;;;;;;;;;;5108973;28;20024;-64
2022/06/05 03:07:18;;;;;;;9.45;6.72;;;;;;;;;;5091817;28;20107;-63
2022/06/05 03:10:04;;;;;;;10.45;6.93;;;;;;;;;;5099468;28;20534;-70
2022/06/05 03:12:50;;;;;;;7.53;6.53;;;;;;;;;;5101294;28;20016;-70
2022/06/05 03:15:35;;;;;;;9.35;6.72;;;;;;;;;;5116763;27;20034;-72
2022/06/05 03:18:21;;;;;;;7.20;6.50;;;;;;;;;;5105511;27;20062;-72
2022/06/05 03:21:07;;;;;;;7.63;6.50;;;;;;;;;;5102405;28;20028;-71
2022/06/05 03:23:52;;;;;;;7.82;6.82;;;;;;;;;;5102709;28;20410;-71
2022/06/05 03:26:39;;;;;;;9.15;6.30;;;;;;;;;;5088571;28;20030;-66
2022/06/05 03:29:25;;;;;;;7.28;6.05;;;;;;;;;;5088683;28;20088;-75
2022/06/05 03:32:10;;;;;;;7.43;6.55;;;;;;;;;;5100853;28;20019;-75
2022/06/05 03:34:56;;;;;;;8.00;6.78;;;;;;;;;;5103296;28;20055;-75
2022/06/05 03:37:42;;;;;;;9.57;6.25;;;;;;;;;;5097415;28;20020;-75
2022/06/05 03:40:28;;;;;;;9.25;7.13;;;;;;;;;;5106300;28;20566;-75
2022/06/05 03:43:14;;;;;;;9.95;7.05;;;;;;;;;;5099344;28;20028;-75
2022/06/05 03:46:00;;;;;;;9.88;6.90;;;;;;;;;;5100547;27;20034;-64
2022/06/05 03:48:46;;;;;;;8.55;7.03;;;;;;;;;;5094046;28;20044;-64
2022/06/05 03:51:31;;;;;;;9.05;7.18;;;;;;;;;;5108365;28;20390;-63
2022/06/05 03:54:17;;;;;;;8.90;6.85;;;;;;;;;;5085635;28;20027;-64
2022/06/05 03:57:03;;;;;;;10.02;7.20;;;;;;;;;;5104810;28;20027;-62
2022/06/05 03:59:49;;;;;;;8.23;7.15;;;;;;;;;;5105159;28;20051;-63
2022/06/05 04:02:35;;;;;;;9.63;7.15;;;;;;;;;;5106265;28;20046;-75
2022/06/05 04:05:21;;;;;;;9.60;7.70;;;;;;;;;;5100374;28;20482;-70
2022/06/05 04:08:06;;;;;;;9.75;7.15;;;;;;;;;;5088263;28;20103;-71
2022/06/05 04:10:52;;;;;;;10.25;7.25;;;;;;;;;;5094626;28;20119;-71
2022/06/05 04:13:38;;;;;;;10.77;7.53;;;;;;;;;;5098087;28;20518;-71
2022/06/05 04:16:25;;;;;;;10.63;7.30;;;;;;;;;;5083818;28;20020;-71
2022/06/05 04:19:10;;;;;;;10.15;7.55;;;;;;;;;;5103233;28;20466;-72
2022/06/05 04:21:56;;;;;;;9.40;7.45;;;;;;;;;;5097051;28;20482;-76
2022/06/05 04:24:41;;;;;;;9.55;7.25;;;;;;;;;;5103148;28;20435;-62
2022/06/05 04:27:27;;;;;;;10.55;7.97;;;;;;;;;;5099953;28;20394;-64
2022/06/05 04:30:13;;;;;;;10.40;7.43;;;;;;;;;;5110398;28;20043;-64
2022/06/05 04:32:59;;;;;;;9.45;8.10;;;;;;;;;;5107913;28;20031;-64
2022/06/05 04:35:44;;;;;;;9.80;7.43;;;;;;;;;;5108974;28;20027;-62
2022/06/05 04:38:30;;;;;;;8.07;6.97;;;;;;;;;;5109408;28;20020;-62
2022/06/05 04:41:16;;;;;;;8.32;7.20;;;;;;;;;;5110527;28;20039;-72
2022/06/05 04:44:01;;;;;;;9.07;7.63;;;;;;;;;;5099462;28;20020;-71
2022/06/05 04:46:47;;;;;;;9.60;8.55;;;;;;;;;;5108773;28;20027;-73
2022/06/05 04:49:35;;;;;;;10.38;8.13;;;;;;;;;;5097419;28;20082;-73
2022/06/05 04:52:20;;;;;;;12.05;8.35;;;;;;;;;;5101998;28;20104;-73
2022/06/05 04:55:07;;;;;;;10.95;8.27;;;;;;;;;;5111111;27;20015;-73
2022/06/05 04:57:52;;;;;;;16.52;9.68;;;;;;;;;;5094280;28;20030;-74
2022/06/05 05:00:38;;;;;;;11.05;8.00;;;;;;;;;;5103643;28;20016;-76
2022/06/05 05:03:24;;;;;;;9.40;8.38;;;;;;;;;;5096893;28;20039;-73
2022/06/05 05:06:10;;;;;;;10.55;9.20;;;;;;;;;;5118406;28;20087;-73
2022/06/05 05:08:56;;;;;;;8.85;7.75;;;;;;;;;;5105418;27;20028;-74
2022/06/05 05:11:42;;;;;;;12.55;8.98;;;;;;;;;;5096130;28;20107;-73
2022/06/05 05:14:28;;;;;;;14.30;9.15;;;;;;;;;;5102557;28;20040;-73
2022/06/05 05:17:14;;;;;;;10.88;9.10;;;;;;;;;;5110739;27;20504;-72
2022/06/05 05:19:59;;;;;;;12.98;9.57;;;;;;;;;;5098973;28;20020;-74
2022/06/05 05:22:45;;;;;;;13.23;9.10;;;;;;;;;;5103931;28;20506;-74
2022/06/05 05:25:31;;;;;;;13.82;9.98;;;;;;;;;;5100411;27;20016;-73
2022/06/05 05:28:16;;;;;;;12.38;10.38;;;;;;;;;;5100289;28;20024;-72
2022/06/05 05:31:05;;;;;;;12.68;10.68;;;;;;;;;;5092510;28;20035;-73
2022/06/05 05:33:51;;;;;;;11.75;10.00;;;;;;;;;;5110442;28;20023;-73
2022/06/05 05:36:37;;;;;;;14.60;10.52;;;;;;;;;;5089147;28;20115;-63
2022/06/05 05:42:30;;;;;;;16.85;10.80;;;;;;;;;;5101128;28;20465;-73
2022/06/05 05:45:16;;;;;;;13.27;10.90;;;;;;;;;;5114327;27;20020;-74
2022/06/05 05:48:02;;;;;;;13.88;10.60;;;;;;;;;;5113654;28;20284;-73
2022/06/05 05:50:47;;;;;;;15.80;11.90;;;;;;;;;;5106270;28;20012;-74
2022/06/05 05:53:33;;;;;;;12.27;10.93;;;;;;;;;;5106446;28;20023;-71
2022/06/05 05:56:19;;;;;;;13.93;11.52;;;;;;;;;;5097959;27;20020;-72
2022/06/05 05:59:04;;;;;;;13.88;11.40;;;;;;;;;;5108139;27;20402;-71
2022/06/05 06:01:50;;;;;;;13.52;11.98;;;;;;;;;;5105504;27;20059;-70
2022/06/05 06:04:35;;;;;;;13.45;10.98;;;;;;;;;;5107135;27;20035;-70
2022/06/05 06:07:21;;;;;;;12.63;10.40;;;;;;;;;;5098620;27;20141;-69
2022/06/05 06:10:07;;;;;;;14.32;11.50;;;;;;;;;;5105676;27;20027;-72
2022/06/05 06:12:53;;;;;;;11.35;10.07;;;;;;;;;;5103593;27;20016;-63
2022/06/05 06:15:38;;;;;;;13.70;9.52;;;;;;;;;;5111044;27;20102;-65
2022/06/05 06:18:24;;;;;;;11.32;8.65;;;;;;;;;;5107081;27;20012;-65
2022/06/05 06:21:10;;;;;;;9.48;7.63;;;;;;;;;;5107373;27;20110;-65
2022/06/05 06:23:55;;;;;;;10.88;7.43;;;;;;;;;;5086568;27;20500;-67
2022/06/05 06:26:41;;;;;;;9.00;7.57;;;;;;;;;;5113484;27;20023;-66
2022/06/05 06:29:26;;;;;;;8.75;6.90;;;;;;;;;;5115363;27;20019;-65
2022/06/05 06:32:12;;;;;;;7.63;5.85;;;;;;;;;;5111719;27;20086;-68
2022/06/05 06:34:58;;;;;;;9.02;5.43;;;;;;;;;;5113032;27;20118;-63
2022/06/05 06:37:43;;;;;;;6.70;4.82;;;;;;;;;;5095924;28;20020;-66
2022/06/05 06:40:29;;;;;;;5.18;3.30;;;;;;;;;;5101513;27;20067;-64
2022/06/05 06:43:15;;;;;;;8.48;4.20;;;;;;;;;;5098816;28;20036;-64
2022/06/05 06:46:01;;;;;;;6.38;4.75;;;;;;;;;;5094673;28;20023;-64
2022/06/05 06:48:47;;;;;;;10.95;5.68;;;;;;;;;;5094584;28;20044;-64
2022/06/05 06:51:32;;;;;;;8.00;6.00;;;;;;;;;;5093458;28;20020;-71
2022/06/05 06:54:19;;;;;;;9.57;5.07;;;;;;;;;;5104302;27;20036;-69
2022/06/05 06:57:04;;;;;;;13.45;5.53;;;;;;;;;;5093419;27;20020;-71
2022/06/05 06:59:50;;;;;;;10.48;5.28;;;;;;;;;;5094780;28;20555;-71
2022/06/05 07:02:35;;;;;;;9.68;5.25;;;;;;;;;;5094415;28;20161;-70
2022/06/05 07:05:21;;;;;;;8.75;5.07;;;;;;;;;;5092255;28;20490;-70
2022/06/05 07:08:12;;;;;;;7.60;4.72;;;;;;;;;;5108562;28;20032;-66
2022/06/05 07:10:58;;;;;;;10.38;6.40;;;;;;;;;;5111060;28;20507;-72
2022/06/05 07:13:43;;;;;;;9.80;5.78;;;;;;;;;;5110842;28;20015;-72
2022/06/05 07:16:29;;;;;;;7.25;4.88;;;;;;;;;;5097620;27;20039;-71
2022/06/05 07:19:16;;;;;;;6.55;5.15;;;;;;;;;;5093512;28;20016;-72
2022/06/05 07:22:02;;;;;;;10.55;5.55;;;;;;;;;;5082266;28;20028;-73
2022/06/05 07:24:47;;;;;;;10.15;5.07;;;;;;;;;;5093706;28;20386;-72
2022/06/05 07:27:33;;;;;;;7.25;4.22;;;;;;;;;;5108817;28;20366;-71
2022/06/05 07:30:18;;;;;;;5.22;3.35;;;;;;;;;;5109287;28;20496;-62
2022/06/05 07:33:04;;;;;;;5.85;3.70;;;;;;;;;;5102926;28;20488;-62
2022/06/05 07:35:59;;;;;;;6.15;3.70;;;;;;;;;;5099929;28;20482;-63
2022/06/05 07:38:45;;;;;;;8.70;4.38;;;;;;;;;;5101187;28;20020;-63
2022/06/05 07:41:33;;;;;;;6.18;4.20;;;;;;;;;;5107963;28;20406;-62
2022/06/05 07:44:18;;;;;;;5.40;4.45;;;;;;;;;;5100059;28;20129;-63
2022/06/05 07:47:05;;;;;;;6.75;4.22;;;;;;;;;;5097710;28;20019;-64
2022/06/05 07:49:50;;;;;;;9.05;4.40;;;;;;;;;;5110357;28;20043;-65
2022/06/05 07:55:40;;;;;;;6.18;4.15;;;;;;;;;;5107095;28;20031;-65
2022/06/05 07:58:25;;;;;;;7.40;4.05;;;;;;;;;;5106304;28;20536;-63
2022/06/05 08:01:11;;;;;;;5.93;3.80;;;;;;;;;;5107187;28;20071;-64
2022/06/05 08:03:57;;;;;;;7.93;4.30;;;;;;;;;;5104796;28;20033;-65
2022/06/05 08:06:42;;;;;;;6.82;4.57;;;;;;;;;;5108380;28;20377;-61
2022/06/05 08:09:28;;;;;;;7.28;3.90;;;;;;;;;;5104172;28;20058;-62
2022/06/05 08:12:15;;;;;;;8.45;4.65;;;;;;;;;;5100186;28;20055;-62
2022/06/05 08:15:03;;;;;;;7.60;4.38;;;;;;;;;;5103755;28;20490;-64
2022/06/05 08:17:49;;;;;;;8.75;4.10;;;;;;;;;;5120184;27;20020;-62
2022/06/05 08:20:34;;;;;;;6.30;3.92;;;;;;;;;;5096806;28;20023;-70
2022/06/05 08:23:20;;;;;;;10.10;4.35;;;;;;;;;;5107702;28;20121;-63
2022/06/05 08:26:05;;;;;;;5.32;3.42;;;;;;;;;;5106425;28;20047;-69
2022/06/05 08:28:51;;;;;;;7.65;4.00;;;;;;;;;;5096879;28;20057;-69
2022/06/05 08:31:37;;;;;;;9.32;4.00;;;;;;;;;;5093466;28;20024;-69
2022/06/05 08:34:23;;;;;;;11.60;4.18;;;;;;;;;;5092619;28;20032;-70
2022/06/05 08:43:41;;;;;;;7.38;3.67;;;;;;;;;;5096447;28;20040;-73
2022/06/05 08:46:28;;;;;;;6.78;3.30;;;;;;;;;;5110454;27;20020;-73
2022/06/05 08:49:22;;;;;;;5.68;3.17;;;;;;;;;;5116703;28;20235;-73
2022/06/05 08:52:13;;;;;;;4.70;2.72;;;;;;;;;;5116532;28;20022;-73
2022/06/05 08:54:58;;;;;;;5.47;3.40;;;;;;;;;;5104429;28;20023;-73
2022/06/05 08:57:50;;;;;;;6.00;2.97;;;;;;;;;;5106469;28;20474;-73
2022/06/05 09:00:37;;;;;;;4.32;2.60;;;;;;;;;;5112832;28;20027;-64
2022/06/05 09:03:26;;;;;;;5.95;2.17;;;;;;;;;;5112942;27;20035;-63
2022/06/05 09:06:18;;;;;;;7.63;3.00;;;;;;;;;;5109317;28;20367;-63
2022/06/05 09:09:06;;;;;;;5.05;2.85;;;;;;;;;;5112456;28;20479;-64
2022/06/05 09:11:55;;;;;;;5.13;2.40;;;;;;;;;;5110453;28;20543;-63
2022/06/05 09:14:45;;;;;;;4.60;2.60;;;;;;;;;;5108817;28;20490;-63
2022/06/05 09:17:31;;;;;;;4.35;2.85;;;;;;;;;;5103786;28;20580;-62
2022/06/05 09:20:18;;;;;;;5.38;2.70;;;;;;;;;;5110809;28;20031;-63
2022/06/05 09:23:07;;;;;;;3.90;2.08;;;;;;;;;;5110943;28;20093;-66
2022/06/05 09:25:57;;;;;;;7.68;2.70;;;;;;;;;;5101042;27;20020;-64
2022/06/05 09:28:54;;;;;;;3.25;1.98;;;;;;;;;;5103806;28;20027;-64
2022/06/05 09:31:46;;;;;;;3.97;2.10;;;;;;;;;;5102472;28;20117;-65
2022/06/05 09:34:34;;;;;;;2.70;2.03;;;;;;;;;;5111405;28;20118;-69
2022/06/05 09:37:38;;;;;;;6.07;2.30;;;;;;;;;;5096615;28;20027;-72
2022/06/05 09:40:27;;;;;;;4.97;2.00;;;;;;;;;;5100618;27;20310;-74
2022/06/05 09:43:13;;;;;;;4.72;2.00;;;;;;;;;;5091842;28;20065;-74
2022/06/05 09:46:17;;;;;;;7.22;2.13;;;;;;;;;;5100523;28;20066;-73
2022/06/05 09:49:03;;;;;;;5.63;1.80;;;;;;;;;;5112668;28;20046;-74
2022/06/05 09:51:48;;;;;;;4.90;2.00;;;;;;;;;;5104365;28;20088;-75
2022/06/05 09:54:37;;;;;;;5.32;2.00;;;;;;;;;;5114931;27;20454;-64
2022/06/05 10:00:42;;;;;;;5.57;2.72;;;;;;;;;;5113196;28;20065;-67
2022/06/05 10:03:32;;;;;;;5.35;1.70;;;;;;;;;;5101690;28;20024;-66
2022/06/05 10:06:23;;;;;;;3.25;1.77;;;;;;;;;;5100765;27;20023;-65
2022/06/05 10:09:13;;;;;;;5.35;1.70;;;;;;;;;;5111944;28;20382;-64
2022/06/05 10:12:01;;;;;;;6.97;2.08;;;;;;;;;;5104379;28;20064;-73
2022/06/05 10:14:51;;;;;;;3.90;1.65;;;;;;;;;;5103596;28;20466;-72
2022/06/05 10:17:43;;;;;;;4.03;1.70;;;;;;;;;;5100522;28;20066;-72
2022/06/05 10:20:36;;;;;;;4.28;1.73;;;;;;;;;;5103591;28;20027;-72
2022/06/05 10:23:32;;;;;;;3.92;1.70;;;;;;;;;;5095235;28;20161;-68
2022/06/05 10:26:18;;;;;;;4.18;1.75;;;;;;;;;;5100844;28;20215;-70
2022/06/05 10:29:16;;;;;;;3.30;2.00;;;;;;;;;;5084475;28;20043;-72
2022/06/05 10:32:11;;;;;;;3.25;1.95;;;;;;;;;;5101581;28;20057;-71
2022/06/05 10:35:06;;;;;;;3.83;1.92;;;;;;;;;;5097545;28;20486;-71
2022/06/05 10:38:06;;;;;;;5.38;2.00;;;;;;;;;;5097221;28;20031;-70
2022/06/05 10:40:58;;;;;;;5.05;2.17;;;;;;;;;;5098165;27;20016;-70
2022/06/05 10:43:43;;;;;;;4.43;2.15;;;;;;;;;;5105913;28;20024;-70
2022/06/05 10:46:30;;;;;;;8.40;2.65;;;;;;;;;;5103563;27;20016;-71
2022/06/05 10:49:29;;;;;;;6.95;2.63;;;;;;;;;;5100213;28;20044;-71
2022/06/05 10:52:33;;;;;;;5.50;3.25;;;;;;;;;;5109704;28;20016;-72
2022/06/05 10:55:23;;;;;;;7.90;4.32;;;;;;;;;;5106143;28;20131;-71
2022/06/05 10:58:09;;;;;;;8.57;3.47;;;;;;;;;;5102199;28;20016;-72
2022/06/05 11:01:12;;;;;;;8.77;3.75;;;;;;;;;;5109904;28;20482;-72
2022/06/05 11:04:23;;;;;;;6.80;3.55;;;;;;;;;;5092965;28;20032;-73
2022/06/05 11:07:11;;;;;;;6.55;3.65;;;;;;;;;;5105552;28;20042;-65
2022/06/05 11:10:04;;;;;;;5.72;3.50;;;;;;;;;;5109277;28;20027;-65
2022/06/05 11:16:20;;;;;;;9.55;3.70;;;;;;;;;;5109786;27;20473;-67
2022/06/05 11:19:15;;;;;;;6.25;3.63;;;;;;;;;;5105622;28;20026;-67
2022/06/05 11:22:02;;;;;;;9.02;4.18;;;;;;;;;;5109545;28;20031;-66
2022/06/05 11:24:52;;;;;;;9.48;4.60;;;;;;;;;;5112777;28;20023;-73
2022/06/05 11:28:07;;;;;;;9.50;5.50;;;;;;;;;;5111283;28;20465;-63
2022/06/05 11:31:13;;;;;;;11.05;5.10;;;;;;;;;;5045987;28;20032;-62
2022/06/05 11:34:13;;;;;;;10.77;4.60;;;;;;;;;;5091313;28;20036;-63
2022/06/05 11:37:08;;;;;;;5.28;3.50;;;;;;;;;;5095798;28;20093;-63
2022/06/05 11:40:09;;;;;;;6.45;3.42;;;;;;;;;;5104808;27;20090;-64
2022/06/05 11:43:03;;;;;;;7.00;3.20;;;;;;;;;;5089631;28;20031;-66
2022/06/05 11:45:52;;;;;;;6.63;3.28;;;;;;;;;;5109412;27;20111;-66
2022/06/05 11:48:37;;;;;;;5.07;3.20;;;;;;;;;;5105653;28;20058;-70
2022/06/05 11:51:26;;;;;;;6.28;3.20;;;;;;;;;;5103670;28;20036;-71
2022/06/05 11:54:15;;;;;;;5.25;2.83;;;;;;;;;;5108359;28;20011;-71
2022/06/05 11:57:01;;;;;;;;;;;;;;;;;;5099583;28;20024;-72
2022/06/05 12:00:04;;;;;;;8.95;3.72;;;;;;;;;;5105046;28;19926;-71
2022/06/05 12:03:09;;;;;;;7.65;3.38;;;;;;;;;;5109997;28;20137;-73
2022/06/05 12:06:01;;;;;;;7.38;3.30;;;;;;;;;;5102102;28;20015;-64
2022/06/05 12:08:49;;;;;;;6.82;3.00;;;;;;;;;;5090649;28;20551;-62
2022/06/05 12:11:44;;;;;;;7.40;2.80;;;;;;;;;;5106567;28;20508;-64
2022/06/05 12:14:32;;;;;;;4.78;2.50;;;;;;;;;;5101513;28;20023;-64
2022/06/05 12:17:41;;;;;;;5.38;2.60;;;;;;;;;;5113709;27;20107;-64
2022/06/05 12:20:45;;;;;;;5.85;2.60;;;;;;;;;;5099176;28;20061;-72
2022/06/05 12:23:37;;;;;;;9.23;3.20;;;;;;;;;;5095790;28;20536;-73
2022/06/05 12:26:25;;;;;;;8.18;2.72;;;;;;;;;;5108158;28;20085;-71
2022/06/05 12:29:19;;;;;;;5.72;2.42;;;;;;;;;;5104285;28;20015;-72
2022/06/05 12:32:04;;;;;;;8.27;3.30;;;;;;;;;;5104051;28;20507;-72
2022/06/05 12:35:05;;;;;;;5.70;2.47;;;;;;;;;;5106205;28;20467;-72
2022/06/05 12:38:11;;;;;;;6.93;2.75;;;;;;;;;;5090361;28;20053;-64
2022/06/05 12:41:05;;;;;;;7.72;3.40;;;;;;;;;;5087984;28;20015;-72
2022/06/05 12:43:56;;;;;;;5.15;2.40;;;;;;;;;;5106025;28;20030;-70
2022/06/05 12:46:42;;;;;;;5.55;2.50;;;;;;;;;;5097860;28;20459;-70
2022/06/05 12:49:36;;;;;;;8.52;3.03;;;;;;;;;;5098807;28;20138;-72
2022/06/05 12:52:27;;;;;;;6.63;2.80;;;;;;;;;;5108490;28;20394;-70
2022/06/05 12:55:18;;;;;;;9.23;3.97;;;;;;;;;;5110343;28;20445;-72
2022/06/05 12:58:25;;;;;;;8.25;2.83;;;;;;;;;;5095434;28;20479;-73
2022/06/05 13:01:13;;;;;;;7.28;2.50;;;;;;;;;;5108411;28;20055;-64
2022/06/05 13:04:06;;;;;;;6.55;2.10;;;;;;;;;;5109010;28;20032;-64
2022/06/05 13:06:58;;;;;;;6.18;2.40;;;;;;;;;;5107655;28;20029;-63
2022/06/05 13:09:55;;;;;;;5.63;2.30;;;;;;;;;;5110161;28;20114;-66
2022/06/05 13:12:52;;;;;;;4.78;2.28;;;;;;;;;;5099181;28;20031;-64
2022/06/05 13:15:50;;;;;;;6.80;2.47;;;;;;;;;;5106302;28;20362;-72
2022/06/05 13:18:48;;;;;;;4.97;2.60;;;;;;;;;;5111042;28;20015;-64
2022/06/05 13:21:35;;;;;;;5.40;2.45;;;;;;;;;;5099295;28;20036;-65
2022/06/05 13:24:47;;;;;;;5.20;2.38;;;;;;;;;;5090000;28;20028;-65
2022/06/05 13:27:54;;;;;;;6.30;2.53;;;;;;;;;;5098194;27;20039;-65
2022/06/05 13:30:51;;;;;;;7.22;2.97;;;;;;;;;;5112822;28;20126;-65
2022/06/05 13:33:43;;;;;;;2.95;2.00;;;;;;;;;;5107574;27;20035;-73
2022/06/05 13:36:29;;;;;;;6.55;2.10;;;;;;;;;;5102470;28;20532;-63
2022/06/05 13:39:15;;;;;;;6.32;2.50;;;;;;;;;;5105224;28;20016;-64
2022/06/05 13:42:08;;;;;;;5.57;2.85;;;;;;;;;;5109648;28;20044;-64
2022/06/05 13:44:58;;;;;;;4.38;2.00;;;;;;;;;;5104940;28;20107;-65
2022/06/05 13:47:44;;;;;;;;;;;;;;;;;;5110510;28;20029;-63
2022/06/05 13:50:48;;;;;;;6.60;2.60;;;;;;;;;;5109354;28;19974;-63
2022/06/05 13:53:37;;;;;;;7.47;2.78;;;;;;;;;;5097857;28;20085;-65
2022/06/05 13:56:33;;;;;;;7.55;2.95;;;;;;;;;;5096333;28;20090;-63
2022/06/05 13:59:25;;;;;;;3.75;2.00;;;;;;;;;;5104640;27;20077;-64
2022/06/05 14:02:29;;;;;;;6.35;2.45;;;;;;;;;;5083900;27;20036;-62
2022/06/05 14:05:15;;;;;;;5.72;2.60;;;;;;;;;;5102894;27;20031;-60
2022/06/05 14:08:12;;;;;;;5.25;2.63;;;;;;;;;;5127170;27;20050;-63
2022/06/05 14:11:03;;;;;;;5.68;2.58;;;;;;;;;;5121271;27;20023;-72
2022/06/05 14:13:51;;;;;;;6.00;2.63;;;;;;;;;;5108072;27;20031;-73
2022/06/05 14:16:45;;;;;;;4.80;2.17;;;;;;;;;;5105459;27;20035;-71
2022/06/05 14:19:33;;;;;;;3.47;2.47;;;;;;;;;;5102937;27;20020;-72
2022/06/05 14:22:23;;;;;;;7.00;2.40;;;;;;;;;;5110117;27;20035;-74
2022/06/05 14:25:38;;;;;;;6.32;2.30;;;;;;;;;;5107198;27;20062;-70
2022/06/05 14:28:32;;;;;;;5.43;2.60;;;;;;;;;;5096717;27;20093;-71
2022/06/05 14:31:20;;;;;;;6.63;2.08;;;;;;;;;;5117392;27;20104;-71
2022/06/05 14:34:06;;;;;;;5.13;2.30;;;;;;;;;;5105533;27;20019;-64
2022/06/05 14:36:53;;;;;;;8.90;2.70;;;;;;;;;;5105717;27;20463;-63
2022/06/05 14:39:40;;;;;;;8.02;2.83;;;;;;;;;;5112671;27;20024;-64
2022/06/05 14:42:45;;;;;;;8.77;2.90;;;;;;;;;;5106041;27;20031;-64
2022/06/05 14:45:37;;;;;;;7.70;3.40;;;;;;;;;;5103560;27;20034;-62
2022/06/05 14:48:29;;;;;;;5.50;2.70;;;;;;;;;;5107928;28;20048;-63
2022/06/05 14:51:18;;;;;;;9.60;3.25;;;;;;;;;;5101137;28;20031;-65
2022/06/05 14:54:13;;;;;;;3.75;2.67;;;;;;;;;;5101252;28;20024;-64
2022/06/05 15:00:08;;;;;;;3.60;2.72;;;;;;;;;;5103269;28;20424;-66
2022/06/05 15:03:04;;;;;;;4.70;2.47;;;;;;;;;;5102072;28;20035;-64
2022/06/05 15:05:53;;;;;;;7.45;2.97;;;;;;;;;;5099912;27;20036;-62
2022/06/05 15:08:55;;;;;;;5.57;3.28;;;;;;;;;;5103608;27;20486;-62
2022/06/05 15:11:44;;;;;;;6.15;2.85;;;;;;;;;;5103721;27;20030;-62
2022/06/05 15:14:40;;;;;;;6.32;3.08;;;;;;;;;;5120495;28;20023;-62
2022/06/05 15:17:25;;;;;;;6.68;3.22;;;;;;;;;;5119112;27;20012;-62
2022/06/05 15:20:17;;;;;;;7.60;3.17;;;;;;;;;;5104446;27;20162;-63
2022/06/05 15:23:11;;;;;;;5.15;2.70;;;;;;;;;;5099180;28;20040;-63
2022/06/05 15:26:06;;;;;;;6.45;2.92;;;;;;;;;;5101643;28;20110;-62
2022/06/05 15:29:06;;;;;;;5.50;3.25;;;;;;;;;;5106424;28;20028;-61
2022/06/05 15:32:14;;;;;;;3.80;2.40;;;;;;;;;;5096025;28;20484;-62
2022/06/05 15:35:03;;;;;;;6.57;3.05;;;;;;;;;;5105345;28;20012;-63
2022/06/05 15:37:54;;;;;;;4.32;2.45;;;;;;;;;;5103314;28;20031;-62
2022/06/05 15:40:59;;;;;;;4.03;2.10;;;;;;;;;;5106733;27;20387;-62
2022/06/05 15:44:14;;;;;;;5.63;2.33;;;;;;;;;;5103151;28;20032;-64
2022/06/05 15:47:18;;;;;;;4.55;1.90;;;;;;;;;;5127669;27;20497;-64
2022/06/05 15:50:06;;;;;;;5.68;2.10;;;;;;;;;;5097295;27;20399;-64
2022/06/05 15:52:59;;;;;;;3.17;1.87;;;;;;;;;;5106306;28;20019;-63
2022/06/05 15:55:48;;;;;;;5.32;2.40;;;;;;;;;;5104001;27;20070;-65
2022/06/05 15:58:52;;;;;;;4.95;2.20;;;;;;;;;;5103823;28;20019;-64
2022/06/05 16:01:41;;;;;;;8.15;2.17;;;;;;;;;;5103240;27;20474;-70
2022/06/05 16:04:29;;;;;;;5.03;2.05;;;;;;;;;;5104000;27;21269;-61
2022/06/05 16:07:17;;;;;;;7.07;2.15;;;;;;;;;;5110043;27;20034;-62
2022/06/05 16:10:07;;;;;;;4.28;2.00;;;;;;;;;;5098453;27;20072;-63
2022/06/05 16:12:54;;;;;;;4.55;2.25;;;;;;;;;;5108780;27;20027;-62
2022/06/05 16:15:46;;;;;;;2.97;1.95;;;;;;;;;;5094794;28;20061;-61
2022/06/05 16:18:37;;;;;;;4.70;2.00;;;;;;;;;;5113083;27;20062;-61
2022/06/05 16:21:34;;;;;;;4.22;2.20;;;;;;;;;;5111511;27;20074;-68
2022/06/05 16:24:23;;;;;;;4.82;2.00;;;;;;;;;;5085940;28;20039;-62
2022/06/05 16:27:17;;;;;;;3.38;1.88;;;;;;;;;;5110848;28;20425;-62
2022/06/05 16:30:26;;;;;;;9.10;2.47;;;;;;;;;;5094754;28;20030;-62
2022/06/05 16:33:19;;;;;;;4.53;1.75;;;;;;;;;;5106019;28;20027;-62
2022/06/05 16:39:27;;;;;;;6.10;2.25;;;;;;;;;;5111257;28;20019;-72
2022/06/05 16:42:24;;;;;;;4.90;1.80;;;;;;;;;;5108606;28;20035;-73
2022/06/05 16:45:10;;;;;;;6.22;1.80;;;;;;;;;;5105398;28;20038;-74
2022/06/05 16:47:58;;;;;;;3.70;2.13;;;;;;;;;;5093660;28;20498;-74
2022/06/05 16:50:49;;;;;;;3.33;1.80;;;;;;;;;;5115800;28;20399;-73
2022/06/05 16:53:37;;;;;;;2.65;1.70;;;;;;;;;;5107570;28;20494;-74
2022/06/05 16:56:22;;;;;;;4.90;2.20;;;;;;;;;;5101665;28;20386;-64
2022/06/05 16:59:24;;;;;;;3.92;1.70;;;;;;;;;;5113806;28;20043;-69
2022/06/05 17:02:14;;;;;;;5.53;1.80;;;;;;;;;;5088505;28;20032;-69
2022/06/05 17:05:12;;;;;;;4.40;1.80;;;;;;;;;;5104813;28;20061;-69
2022/06/05 17:08:00;;;;;;;5.32;2.03;;;;;;;;;;5091464;28;20418;-69
2022/06/05 17:10:49;;;;;;;8.15;2.83;;;;;;;;;;5100241;27;20473;-69
2022/06/05 17:13:35;;;;;;;6.32;2.15;;;;;;;;;;5100524;28;20485;-69
2022/06/05 17:16:22;;;;;;;4.20;2.10;;;;;;;;;;5114968;27;20039;-71
2022/06/05 17:19:20;;;;;;;3.35;1.95;;;;;;;;;;5104456;28;20027;-72
2022/06/05 17:22:29;;;;;;;5.80;2.80;;;;;;;;;;5122365;28;20059;-72
2022/06/05 17:25:18;;;;;;;7.40;2.30;;;;;;;;;;5102460;28;20408;-73
2022/06/05 17:28:22;;;;;;;7.07;2.13;;;;;;;;;;5101365;28;20020;-72